Time;durP1;ratioP1;P1;durP2;ratioP2;P2;SDS_P1;SDS_P2;PMS_P1;PMS_P2;Temp;Humidity;BMP_temperature;BMP_pressure;BME280_temperature;BME280_humidity;BME280_pressure;Samples;Min_cycle;Max_cycle;Signal;HPM_P1;HPM_P2
2021/07/04 00:00:35;;;;;;;4.78;2.35;;;22.90;57.90;;;;;;5032982;28;20476;-69
2021/07/04 00:03:02;;;;;;;3.83;2.28;;;22.90;57.90;;;;;;5033046;28;20040;-69
2021/07/04 00:05:46;;;;;;;3.78;2.38;;;22.90;57.90;;;;;;5034207;28;20045;-69
2021/07/04 00:08:16;;;;;;;4.73;2.23;;;22.90;58.00;;;;;;5037014;28;20025;-69
2021/07/04 00:10:45;;;;;;;4.32;2.40;;;22.90;58.00;;;;;;5035652;28;20022;-69
2021/07/04 00:13:11;;;;;;;4.53;2.47;;;22.90;58.00;;;;;;5036895;28;20040;-69
2021/07/04 00:15:40;;;;;;;4.47;2.60;;;22.90;58.00;;;;;;5036819;28;20033;-69
2021/07/04 00:18:12;;;;;;;4.88;2.65;;;22.90;58.10;;;;;;5036841;28;20033;-69
2021/07/04 00:20:38;;;;;;;4.43;2.42;;;22.90;58.10;;;;;;5036715;28;20025;-69
2021/07/04 00:23:04;;;;;;;3.75;2.40;;;22.90;58.10;;;;;;5036715;28;20366;-69
2021/07/04 00:25:30;;;;;;;4.65;2.65;;;22.90;58.10;;;;;;5036756;28;20084;-69
2021/07/04 00:27:57;;;;;;;4.40;2.35;;;22.90;58.10;;;;;;5036630;28;20059;-69
2021/07/04 00:30:23;;;;;;;4.55;2.35;;;22.90;58.10;;;;;;5036842;28;20396;-69
2021/07/04 00:32:50;;;;;;;4.63;2.60;;;22.80;58.20;;;;;;5036179;28;20436;-69
2021/07/04 00:35:17;;;;;;;3.70;2.30;;;22.80;58.20;;;;;;5036584;28;20037;-69
2021/07/04 00:37:43;;;;;;;4.65;2.67;;;22.80;58.20;;;;;;5036509;28;20116;-69
2021/07/04 00:40:09;;;;;;;5.05;2.60;;;22.80;58.20;;;;;;5035069;28;20108;-69
2021/07/04 00:42:39;;;;;;;4.13;2.22;;;22.80;58.20;;;;;;5036314;28;20022;-69
2021/07/04 00:45:11;;;;;;;4.47;2.38;;;22.80;58.20;;;;;;5041142;28;20069;-69
2021/07/04 00:47:37;;;;;;;5.20;2.65;;;22.80;58.20;;;;;;5038589;28;20427;-68
2021/07/04 00:50:04;;;;;;;4.15;2.33;;;22.80;58.20;;;;;;5036609;28;20100;-69
2021/07/04 00:52:30;;;;;;;3.55;2.10;;;22.80;58.30;;;;;;5036391;28;20488;-69
2021/07/04 00:54:56;;;;;;;4.50;2.30;;;22.80;58.30;;;;;;5036358;28;20029;-69
2021/07/04 00:57:22;;;;;;;4.32;2.50;;;22.70;58.30;;;;;;5036334;28;20025;-69
2021/07/04 00:59:48;;;;;;;4.10;2.40;;;22.80;58.30;;;;;;5036282;28;20029;-69
2021/07/04 01:02:13;;;;;;;4.38;2.38;;;22.80;58.40;;;;;;5036100;28;20387;-69
2021/07/04 01:04:39;;;;;;;4.18;2.42;;;22.80;58.40;;;;;;5034734;28;20159;-69
2021/07/04 01:07:05;;;;;;;4.00;2.42;;;22.70;58.40;;;;;;5034949;28;20112;-69
2021/07/04 01:09:31;;;;;;;4.43;2.55;;;22.80;58.40;;;;;;5036032;28;20028;-69
2021/07/04 01:11:56;;;;;;;4.75;2.53;;;22.80;58.40;;;;;;5036052;28;20109;-69
2021/07/04 01:14:22;;;;;;;4.07;2.20;;;22.70;58.40;;;;;;5035620;28;20506;-69
2021/07/04 01:16:48;;;;;;;3.85;2.22;;;22.70;58.40;;;;;;5034884;28;20021;-68
2021/07/04 01:19:15;;;;;;;3.97;2.28;;;22.70;58.40;;;;;;5035920;28;20452;-69
2021/07/04 01:21:43;;;;;;;4.80;2.63;;;22.80;58.50;;;;;;5035724;28;20022;-69
2021/07/04 01:24:10;;;;;;;4.80;2.55;;;22.70;58.40;;;;;;5035544;28;20029;-69
2021/07/04 01:26:36;;;;;;;4.38;2.58;;;22.70;58.50;;;;;;5035686;28;20025;-69
2021/07/04 01:29:03;;;;;;;4.05;2.28;;;22.70;58.50;;;;;;5035451;28;20390;-69
2021/07/04 01:31:29;;;;;;;4.75;2.53;;;22.70;58.50;;;;;;5035280;28;20044;-69
2021/07/04 01:33:55;;;;;;;3.80;2.30;;;22.70;58.50;;;;;;5035305;28;20503;-69
2021/07/04 01:36:20;;;;;;;3.70;2.00;;;22.70;58.50;;;;;;5035305;28;20029;-69
2021/07/04 01:38:46;;;;;;;3.92;2.20;;;22.70;58.50;;;;;;5035313;28;20045;-69
2021/07/04 01:41:12;;;;;;;6.22;2.58;;;22.70;58.50;;;;;;5035335;28;20025;-69
2021/07/04 01:43:37;;;;;;;3.95;2.45;;;22.70;58.50;;;;;;5035177;28;20100;-69
2021/07/04 01:46:03;;;;;;;4.70;2.60;;;22.70;58.50;;;;;;5033671;28;20025;-69
2021/07/04 01:48:28;;;;;;;4.75;2.63;;;22.70;58.50;;;;;;5035042;28;20033;-69
2021/07/04 01:50:54;;;;;;;4.82;2.47;;;22.70;58.60;;;;;;5035057;28;20022;-69
2021/07/04 01:53:21;;;;;;;4.45;2.58;;;22.60;58.60;;;;;;5033722;28;20060;-69
2021/07/04 01:55:47;;;;;;;3.88;2.35;;;22.60;58.50;;;;;;5035646;28;20084;-69
2021/07/04 01:58:12;;;;;;;5.55;2.63;;;22.60;58.60;;;;;;5034980;28;20030;-69
2021/07/04 02:00:39;;;;;;;3.78;2.30;;;22.70;58.60;;;;;;5033525;28;20087;-69
2021/07/04 02:03:08;;;;;;;3.30;2.10;;;22.60;58.60;;;;;;5034822;28;20045;-69
2021/07/04 02:05:34;;;;;;;4.40;2.50;;;22.60;58.60;;;;;;5034884;28;20108;-69
2021/07/04 02:08:00;;;;;;;4.10;2.60;;;22.60;58.60;;;;;;5034892;28;20481;-69
2021/07/04 02:10:31;;;;;;;3.72;2.13;;;22.60;58.70;;;;;;5034570;28;20109;-69
2021/07/04 02:12:57;;;;;;;4.18;2.50;;;22.60;58.70;;;;;;5034837;28;20061;-69
2021/07/04 02:15:26;;;;;;;5.55;2.83;;;22.60;58.70;;;;;;5034372;28;20461;-70
2021/07/04 02:17:52;;;;;;;4.32;2.40;;;22.60;58.70;;;;;;5034602;28;20033;-68
2021/07/04 02:20:56;;;;;;;4.13;2.33;;;22.60;58.70;;;;;;5034542;28;20033;-70
2021/07/04 02:23:28;;;;;;;4.85;2.53;;;22.60;58.70;;;;;;5012527;28;20080;-69
2021/07/04 02:25:56;;;;;;;4.93;2.65;;;22.60;58.80;;;;;;5012374;28;20026;-69
2021/07/04 02:28:25;;;;;;;3.90;2.45;;;22.50;58.80;;;;;;5024112;28;20037;-70
2021/07/04 02:30:52;;;;;;;4.53;2.50;;;22.50;58.80;;;;;;5034622;28;20071;-69
2021/07/04 02:33:19;;;;;;;4.40;2.40;;;22.50;58.90;;;;;;5034205;28;20049;-69
2021/07/04 02:35:51;;;;;;;3.92;2.20;;;22.50;59.00;;;;;;5034355;28;20040;-69
2021/07/04 02:38:17;;;;;;;4.30;2.50;;;22.50;59.00;;;;;;5034225;28;20036;-69
2021/07/04 02:40:44;;;;;;;5.00;2.97;;;22.50;59.00;;;;;;5034332;28;20527;-70
2021/07/04 02:43:12;;;;;;;3.67;2.28;;;22.50;59.10;;;;;;5034143;28;20035;-70
2021/07/04 02:45:40;;;;;;;4.40;2.47;;;22.50;59.00;;;;;;5034456;28;20384;-69
2021/07/04 02:48:07;;;;;;;4.50;2.42;;;22.50;59.00;;;;;;5034389;28;20040;-70
2021/07/04 02:50:34;;;;;;;4.15;2.38;;;22.50;59.00;;;;;;5033823;28;20025;-69
2021/07/04 02:52:59;;;;;;;3.95;2.25;;;22.50;59.00;;;;;;5034002;28;20141;-69
2021/07/04 02:55:25;;;;;;;4.20;2.30;;;22.50;59.10;;;;;;5033981;28;20057;-69
2021/07/04 02:57:51;;;;;;;4.47;2.70;;;22.50;59.10;;;;;;5034279;28;20025;-69
2021/07/04 03:00:20;;;;;;;4.47;2.58;;;22.50;59.10;;;;;;5032746;28;20083;-69
2021/07/04 03:02:46;;;;;;;4.20;2.17;;;22.50;59.10;;;;;;5034093;28;20030;-70
2021/07/04 03:05:12;;;;;;;5.43;2.47;;;22.50;59.10;;;;;;5032443;28;20021;-69
2021/07/04 03:07:39;;;;;;;3.72;2.10;;;22.50;59.10;;;;;;5034003;28;20339;-69
2021/07/04 03:10:10;;;;;;;3.70;2.33;;;22.50;59.10;;;;;;5034132;28;20025;-69
2021/07/04 03:12:35;;;;;;;4.15;2.40;;;22.50;59.10;;;;;;5037189;28;20033;-70
2021/07/04 03:15:03;;;;;;;4.65;2.42;;;22.50;59.10;;;;;;5038375;28;20489;-69
2021/07/04 03:17:28;;;;;;;4.45;2.58;;;22.50;59.00;;;;;;5034922;28;20018;-69
2021/07/04 03:19:54;;;;;;;4.50;2.40;;;22.50;59.10;;;;;;5036024;28;20025;-69
2021/07/04 03:22:22;;;;;;;4.35;2.47;;;22.40;59.20;;;;;;5035484;28;20079;-69
2021/07/04 03:24:49;;;;;;;4.25;2.55;;;22.50;59.20;;;;;;5034673;28;20021;-69
2021/07/04 03:27:15;;;;;;;5.45;2.33;;;22.50;59.10;;;;;;5034273;28;20549;-69
2021/07/04 03:29:41;;;;;;;4.05;2.35;;;22.50;59.10;;;;;;5035291;28;20095;-69
2021/07/04 03:32:09;;;;;;;4.90;2.50;;;22.50;59.10;;;;;;5033364;28;20489;-69
2021/07/04 03:34:35;;;;;;;3.55;2.33;;;22.50;59.10;;;;;;5032390;28;20032;-69
2021/07/04 03:37:01;;;;;;;4.10;2.40;;;22.40;59.10;;;;;;5033569;28;20415;-69
2021/07/04 03:39:26;;;;;;;4.82;2.47;;;22.40;59.20;;;;;;5033294;28;20029;-69
2021/07/04 03:41:55;;;;;;;4.70;2.42;;;22.40;59.10;;;;;;5033114;28;20017;-69
2021/07/04 03:44:20;;;;;;;4.65;2.30;;;22.40;59.10;;;;;;5033197;28;20182;-69
2021/07/04 03:46:46;;;;;;;4.35;2.40;;;22.40;59.10;;;;;;5033029;28;20053;-69
2021/07/04 03:49:12;;;;;;;5.05;2.88;;;22.40;59.10;;;;;;5032979;28;20061;-69
2021/07/04 03:51:41;;;;;;;4.82;2.53;;;22.40;59.10;;;;;;5033227;28;20036;-69
2021/07/04 03:54:06;;;;;;;4.63;2.38;;;22.40;59.10;;;;;;5032962;28;20113;-69
2021/07/04 03:56:32;;;;;;;4.40;2.38;;;22.40;59.20;;;;;;5033011;28;20107;-69
2021/07/04 03:58:57;;;;;;;5.15;2.65;;;22.40;59.10;;;;;;5032958;28;20065;-69
2021/07/04 04:01:23;;;;;;;4.53;2.45;;;22.40;59.10;;;;;;5032958;28;20489;-69
2021/07/04 04:03:49;;;;;;;4.88;2.47;;;22.40;59.10;;;;;;5032958;28;20025;-69
2021/07/04 04:06:16;;;;;;;3.97;2.35;;;22.40;59.20;;;;;;5033007;28;20068;-69
2021/07/04 04:08:43;;;;;;;4.78;2.65;;;22.40;59.10;;;;;;5032890;28;20084;-69
2021/07/04 04:11:09;;;;;;;4.93;2.50;;;22.40;59.10;;;;;;5032796;28;20024;-69
2021/07/04 04:13:34;;;;;;;6.28;2.70;;;22.40;59.10;;;;;;5032715;28;20124;-69
2021/07/04 04:16:00;;;;;;;3.65;2.20;;;22.40;59.10;;;;;;5032827;28;20441;-69
2021/07/04 04:18:26;;;;;;;4.60;2.55;;;22.40;59.20;;;;;;5032876;28;20041;-69
2021/07/04 04:20:51;;;;;;;4.57;2.55;;;22.40;59.10;;;;;;5032770;28;20056;-69
2021/07/04 04:23:17;;;;;;;4.45;2.20;;;22.40;59.10;;;;;;5032932;28;20449;-70
2021/07/04 04:25:43;;;;;;;4.20;2.40;;;22.40;59.10;;;;;;5032721;28;20029;-69
2021/07/04 04:28:11;;;;;;;3.97;2.28;;;22.40;59.20;;;;;;5032619;28;20148;-69
2021/07/04 04:30:36;;;;;;;4.07;2.47;;;22.40;59.20;;;;;;5031387;28;20075;-70
2021/07/04 04:33:03;;;;;;;4.32;2.42;;;22.40;59.20;;;;;;5032568;28;20452;-69
2021/07/04 04:35:29;;;;;;;5.55;2.80;;;22.40;59.20;;;;;;5032771;28;20025;-69
2021/07/04 04:37:55;;;;;;;4.28;2.60;;;22.40;59.20;;;;;;5033238;28;20018;-69
2021/07/04 04:40:20;;;;;;;4.88;2.50;;;22.40;59.20;;;;;;5033102;28;20108;-69
2021/07/04 04:42:46;;;;;;;4.35;2.42;;;22.40;59.20;;;;;;5032667;28;20122;-69
2021/07/04 04:45:12;;;;;;;4.43;2.50;;;22.40;59.20;;;;;;5032583;28;20488;-69
2021/07/04 04:47:38;;;;;;;4.32;2.58;;;22.40;59.20;;;;;;5032800;28;20432;-69
2021/07/04 04:50:05;;;;;;;4.70;2.58;;;22.40;59.20;;;;;;5032889;28;20029;-69
2021/07/04 04:52:30;;;;;;;4.72;2.47;;;22.40;59.30;;;;;;5034064;28;20022;-69
2021/07/04 04:54:56;;;;;;;3.95;2.42;;;22.40;59.30;;;;;;5036249;28;20091;-69
2021/07/04 04:57:22;;;;;;;3.63;2.15;;;22.40;59.30;;;;;;5036078;28;20026;-69
2021/07/04 04:59:47;;;;;;;3.67;2.05;;;22.30;59.30;;;;;;5035971;28;20022;-69
2021/07/04 05:02:13;;;;;;;4.30;2.42;;;22.40;59.30;;;;;;5035977;28;20021;-70
2021/07/04 05:04:41;;;;;;;4.35;2.33;;;22.40;59.30;;;;;;5037100;28;20210;-69
2021/07/04 05:07:07;;;;;;;3.78;2.42;;;22.40;59.30;;;;;;5037035;28;20029;-69
2021/07/04 05:09:34;;;;;;;4.28;2.67;;;22.40;59.30;;;;;;5036655;28;20025;-69
2021/07/04 05:12:00;;;;;;;4.40;2.33;;;22.30;59.30;;;;;;5036665;28;20036;-69
2021/07/04 05:14:25;;;;;;;3.67;2.20;;;22.40;59.30;;;;;;5036566;28;20481;-70
2021/07/04 05:16:51;;;;;;;4.25;2.33;;;22.40;59.30;;;;;;5036942;28;20058;-69
2021/07/04 05:19:17;;;;;;;4.50;2.72;;;22.40;59.30;;;;;;5036735;28;20385;-69
2021/07/04 05:21:42;;;;;;;4.32;2.60;;;22.40;59.30;;;;;;5036676;28;20420;-69
2021/07/04 05:24:10;;;;;;;5.25;2.50;;;22.40;59.30;;;;;;5037038;28;20032;-69
2021/07/04 05:26:36;;;;;;;4.50;2.55;;;22.30;59.30;;;;;;5044305;28;20025;-71
2021/07/04 05:29:02;;;;;;;4.43;2.70;;;22.40;59.30;;;;;;5037943;28;20443;-70
2021/07/04 05:31:28;;;;;;;3.70;2.25;;;22.30;59.30;;;;;;5037823;28;20487;-70
2021/07/04 05:33:57;;;;;;;4.68;2.53;;;22.40;59.30;;;;;;5035566;28;20045;-70
2021/07/04 05:36:26;;;;;;;3.83;2.40;;;22.30;59.30;;;;;;5037878;28;20026;-70
2021/07/04 05:38:52;;;;;;;4.97;3.03;;;22.40;59.30;;;;;;5037260;28;20029;-70
2021/07/04 05:41:18;;;;;;;3.72;2.25;;;22.40;59.30;;;;;;5036774;28;20457;-70
2021/07/04 05:43:45;;;;;;;5.60;3.25;;;22.40;59.30;;;;;;5036634;28;20416;-70
2021/07/04 05:46:11;;;;;;;4.75;2.60;;;22.30;59.30;;;;;;5036347;28;20039;-70
2021/07/04 05:48:40;;;;;;;4.63;2.65;;;22.30;59.30;;;;;;5036522;28;20044;-70
2021/07/04 05:51:06;;;;;;;3.78;2.30;;;22.40;59.40;;;;;;5036304;28;20025;-70
2021/07/04 05:53:31;;;;;;;4.05;2.30;;;22.30;59.30;;;;;;5035978;28;20038;-70
2021/07/04 05:55:57;;;;;;;4.07;2.38;;;22.30;59.30;;;;;;5036277;28;20109;-70
2021/07/04 05:58:23;;;;;;;5.25;2.70;;;22.40;59.30;;;;;;5036465;28;20017;-70
2021/07/04 06:00:49;;;;;;;4.47;2.78;;;22.40;59.30;;;;;;5036203;28;20033;-69
2021/07/04 06:03:15;;;;;;;5.18;2.50;;;22.30;59.30;;;;;;5035734;28;20397;-70
2021/07/04 06:05:41;;;;;;;3.78;2.40;;;22.40;59.30;;;;;;5035409;28;20075;-70
2021/07/04 06:08:06;;;;;;;4.40;2.33;;;22.40;59.40;;;;;;5035628;28;20108;-70
2021/07/04 06:10:32;;;;;;;4.93;2.50;;;22.40;59.40;;;;;;5035394;28;20064;-70
2021/07/04 06:12:58;;;;;;;4.80;2.67;;;22.40;59.40;;;;;;5035257;28;20073;-70
2021/07/04 06:15:24;;;;;;;4.38;2.47;;;22.30;59.40;;;;;;5036174;28;20488;-69
2021/07/04 06:17:50;;;;;;;4.82;2.42;;;22.30;59.40;;;;;;5035511;28;20026;-70
2021/07/04 06:20:17;;;;;;;5.85;2.22;;;22.30;59.40;;;;;;5036553;28;20033;-70
2021/07/04 06:22:44;;;;;;;4.05;2.40;;;22.30;59.40;;;;;;5046213;28;20080;-70
2021/07/04 06:25:11;;;;;;;4.63;2.78;;;22.40;59.40;;;;;;5045833;28;20566;-70
2021/07/04 06:27:39;;;;;;;5.40;2.80;;;22.40;59.40;;;;;;5045900;28;20029;-70
2021/07/04 06:30:08;;;;;;;4.22;2.53;;;22.40;59.40;;;;;;5045595;28;20362;-70
2021/07/04 06:32:33;;;;;;;4.68;2.55;;;22.40;59.30;;;;;;5046181;28;20065;-70
2021/07/04 06:34:59;;;;;;;4.90;2.70;;;22.40;59.30;;;;;;5044291;28;20099;-70
2021/07/04 06:37:24;;;;;;;4.50;2.75;;;22.40;59.40;;;;;;5044635;28;20028;-70
2021/07/04 06:39:50;;;;;;;4.22;2.20;;;22.40;59.30;;;;;;5044692;28;20065;-70
2021/07/04 06:42:15;;;;;;;4.50;2.58;;;22.40;59.30;;;;;;5041446;28;20029;-70
2021/07/04 06:44:41;;;;;;;3.95;2.33;;;22.40;59.20;;;;;;5037142;28;20430;-70
2021/07/04 06:47:06;;;;;;;4.07;2.42;;;22.40;59.30;;;;;;5037581;28;20021;-70
2021/07/04 06:49:32;;;;;;;5.05;2.42;;;22.40;59.20;;;;;;5034593;28;20017;-70
2021/07/04 06:51:58;;;;;;;4.60;2.53;;;22.50;59.20;;;;;;5034425;28;20052;-70
2021/07/04 06:54:23;;;;;;;4.65;2.53;;;22.40;59.30;;;;;;5034200;28;20045;-70
2021/07/04 06:56:49;;;;;;;4.75;2.13;;;22.50;59.30;;;;;;5034308;28;20022;-70
2021/07/04 06:59:14;;;;;;;4.00;2.25;;;22.50;59.30;;;;;;5034162;28;20032;-70
2021/07/04 07:01:40;;;;;;;4.32;2.35;;;22.50;59.30;;;;;;5034150;28;20450;-70
2021/07/04 07:04:05;;;;;;;4.38;2.50;;;22.40;59.30;;;;;;5034347;28;20116;-70
2021/07/04 07:06:31;;;;;;;4.35;2.40;;;22.40;59.30;;;;;;5033978;28;20048;-70
2021/07/04 07:08:57;;;;;;;4.95;2.78;;;22.40;59.30;;;;;;5033694;28;20025;-69
2021/07/04 07:11:22;;;;;;;4.60;2.40;;;22.50;59.40;;;;;;5033770;28;20021;-70
2021/07/04 07:13:48;;;;;;;4.72;2.83;;;22.50;59.30;;;;;;5033548;28;20493;-70
2021/07/04 07:16:14;;;;;;;4.20;2.28;;;22.50;59.20;;;;;;5031727;28;20083;-70
2021/07/04 07:18:39;;;;;;;5.03;2.63;;;22.50;59.30;;;;;;5033645;28;20026;-70
2021/07/04 07:21:05;;;;;;;5.25;2.83;;;22.50;59.30;;;;;;5033491;28;20021;-70
2021/07/04 07:23:31;;;;;;;3.83;2.30;;;22.50;59.20;;;;;;5033312;28;20108;-70
2021/07/04 07:25:56;;;;;;;5.00;2.53;;;22.50;59.30;;;;;;5033152;28;20025;-70
2021/07/04 07:28:22;;;;;;;4.75;2.70;;;22.50;59.30;;;;;;5033229;28;20086;-70
2021/07/04 07:30:48;;;;;;;4.55;2.40;;;22.60;59.20;;;;;;5032938;28;20129;-70
2021/07/04 07:33:14;;;;;;;4.45;2.53;;;22.60;59.20;;;;;;5032560;28;20045;-70
2021/07/04 07:35:40;;;;;;;4.15;2.50;;;22.60;59.20;;;;;;5033111;28;20052;-70
2021/07/04 07:38:06;;;;;;;4.68;2.60;;;22.50;59.20;;;;;;5032527;28;20029;-70
2021/07/04 07:40:35;;;;;;;4.80;2.72;;;22.50;59.30;;;;;;5033158;28;20033;-70
2021/07/04 07:43:02;;;;;;;4.40;2.50;;;22.60;59.30;;;;;;5031418;28;20117;-70
2021/07/04 07:45:28;;;;;;;4.07;2.60;;;22.70;59.20;;;;;;5032628;28;20033;-70
2021/07/04 07:47:53;;;;;;;5.65;2.53;;;22.70;59.00;;;;;;5032853;28;20076;-70
2021/07/04 07:50:19;;;;;;;4.97;3.03;;;22.60;59.10;;;;;;5033237;28;20095;-70
2021/07/04 07:52:44;;;;;;;5.15;2.63;;;22.60;59.20;;;;;;5031348;28;20021;-70
2021/07/04 07:55:11;;;;;;;4.13;2.53;;;22.60;59.20;;;;;;5031367;28;20396;-70
2021/07/04 07:57:37;;;;;;;5.10;2.90;;;22.60;59.20;;;;;;5032824;28;20124;-69
2021/07/04 08:00:05;;;;;;;4.25;2.45;;;22.60;59.30;;;;;;5032718;28;20025;-70
2021/07/04 08:02:30;;;;;;;4.60;3.00;;;22.60;59.30;;;;;;5032429;28;20104;-70
2021/07/04 08:04:58;;;;;;;4.20;2.50;;;22.70;59.20;;;;;;5031336;28;20433;-70
2021/07/04 08:07:23;;;;;;;4.72;2.72;;;22.70;59.10;;;;;;5032460;28;20493;-69
2021/07/04 08:09:49;;;;;;;3.70;2.22;;;22.70;59.20;;;;;;5032643;28;20026;-70
2021/07/04 08:12:14;;;;;;;5.40;2.90;;;22.60;59.30;;;;;;5032565;28;20045;-69
2021/07/04 08:14:40;;;;;;;3.78;2.40;;;22.70;59.10;;;;;;5032569;28;20034;-70
2021/07/04 08:17:05;;;;;;;6.57;2.92;;;22.70;59.20;;;;;;5031267;28;20025;-70
2021/07/04 08:19:31;;;;;;;4.75;2.80;;;22.70;59.30;;;;;;5032672;28;20039;-70
2021/07/04 08:21:56;;;;;;;4.45;2.58;;;22.60;59.20;;;;;;5032633;28;20044;-69
2021/07/04 08:24:22;;;;;;;5.22;2.50;;;22.70;59.20;;;;;;5032646;28;20030;-69
2021/07/04 08:26:48;;;;;;;4.22;2.33;;;22.70;59.20;;;;;;5034235;28;20529;-69
2021/07/04 08:29:13;;;;;;;4.55;2.53;;;22.70;59.10;;;;;;5036331;28;20025;-69
2021/07/04 08:31:39;;;;;;;4.07;2.55;;;22.80;59.10;;;;;;5036096;28;20378;-69
2021/07/04 08:34:04;;;;;;;4.15;2.50;;;22.80;59.10;;;;;;5037209;28;20111;-69
2021/07/04 08:36:32;;;;;;;4.30;2.58;;;22.70;59.10;;;;;;5036342;28;20045;-69
2021/07/04 08:38:58;;;;;;;4.18;2.55;;;22.70;59.20;;;;;;5036231;28;20021;-69
2021/07/04 08:41:23;;;;;;;4.93;2.63;;;22.70;59.20;;;;;;5036688;28;20378;-69
2021/07/04 08:43:49;;;;;;;3.80;2.40;;;22.80;59.20;;;;;;5036411;28;20036;-69
2021/07/04 08:46:15;;;;;;;5.40;2.80;;;22.80;59.20;;;;;;5036258;28;20026;-69
2021/07/04 08:48:41;;;;;;;5.88;2.63;;;22.80;59.10;;;;;;5036214;28;20017;-69
2021/07/04 08:51:08;;;;;;;4.55;2.53;;;22.80;59.10;;;;;;5036067;28;20489;-69
2021/07/04 08:53:34;;;;;;;5.25;2.90;;;22.80;59.20;;;;;;5036141;28;20041;-69
2021/07/04 08:56:00;;;;;;;5.38;2.60;;;22.80;59.20;;;;;;5036065;28;20025;-69
2021/07/04 08:58:26;;;;;;;4.53;2.35;;;22.80;59.10;;;;;;5036132;28;20099;-70
2021/07/04 09:01:13;;;;;;;5.38;2.58;;;22.90;59.00;;;;;;5036042;28;20087;-70
2021/07/04 09:03:41;;;;;;;5.32;2.47;;;22.80;59.00;;;;;;5035776;28;20496;-69
2021/07/04 09:06:07;;;;;;;4.18;2.53;;;22.80;59.10;;;;;;5036000;28;20097;-69
2021/07/04 09:08:32;;;;;;;4.97;2.67;;;22.90;59.10;;;;;;5035833;28;20560;-69
2021/07/04 09:11:18;;;;;;;4.53;2.72;;;22.90;59.10;;;;;;5035741;28;20017;-69
2021/07/04 09:13:46;;;;;;;3.70;2.15;;;22.80;59.10;;;;;;5035759;28;20059;-69
2021/07/04 09:16:15;;;;;;;4.32;2.40;;;22.80;59.10;;;;;;5035753;28;20378;-69
2021/07/04 09:18:41;;;;;;;5.05;2.42;;;22.90;59.10;;;;;;5035692;28;20029;-69
2021/07/04 09:21:21;;;;;;;4.75;2.42;;;22.90;59.10;;;;;;5035781;28;20480;-69
2021/07/04 09:23:47;;;;;;;3.75;2.17;;;22.90;59.10;;;;;;5035576;28;20029;-69
2021/07/04 09:26:37;;;;;;;4.47;2.50;;;22.90;59.00;;;;;;5035745;28;20528;-70
2021/07/04 09:29:02;;;;;;;3.95;2.35;;;22.90;59.00;;;;;;5035665;28;20029;-69
2021/07/04 09:31:28;;;;;;;4.38;2.50;;;22.90;58.90;;;;;;5035288;28;20021;-69
2021/07/04 09:34:23;;;;;;;4.07;2.58;;;23.00;58.90;;;;;;5035439;28;20366;-69
2021/07/04 09:36:54;;;;;;;;;;;23.00;58.90;;;;;;5031396;28;20424;-69
2021/07/04 09:39:21;;;;;;;3.83;2.30;;;23.00;58.90;;;;;;5033548;28;19909;-69
2021/07/04 09:42:06;;;;;;;5.68;2.92;;;23.00;58.80;;;;;;5034372;28;20032;-69
2021/07/04 09:44:32;;;;;;;4.00;2.42;;;23.00;58.90;;;;;;5035506;28;20504;-69
2021/07/04 09:47:12;;;;;;;3.92;2.45;;;23.00;58.90;;;;;;5035470;28;20029;-69
2021/07/04 09:49:41;;;;;;;4.97;2.65;;;23.00;58.80;;;;;;5035937;28;20018;-69
2021/07/04 09:52:19;;;;;;;3.85;2.20;;;23.00;59.00;;;;;;5041270;28;20491;-69
2021/07/04 09:55:04;;;;;;;4.50;2.70;;;23.00;59.00;;;;;;5034888;28;20037;-69
2021/07/04 09:57:54;;;;;;;4.95;2.53;;;23.00;58.90;;;;;;5035571;28;20053;-69
2021/07/04 10:00:20;;;;;;;3.80;2.38;;;23.00;59.00;;;;;;5035137;28;20025;-69
2021/07/04 10:03:13;;;;;;;4.57;2.67;;;23.00;58.80;;;;;;5034948;28;20048;-70
2021/07/04 10:05:44;;;;;;;2.97;2.00;;;23.10;58.70;;;;;;5034820;28;20025;-69
2021/07/04 10:08:21;;;;;;;4.57;2.55;;;23.10;58.80;;;;;;5038087;28;20453;-69
2021/07/04 10:10:48;;;;;;;3.95;2.50;;;23.00;58.80;;;;;;5035226;28;20021;-68
2021/07/04 10:13:14;;;;;;;4.65;2.38;;;23.10;58.80;;;;;;5035412;28;20104;-69
2021/07/04 10:15:41;;;;;;;3.97;2.35;;;23.10;58.70;;;;;;5034905;28;20026;-69
2021/07/04 10:18:11;;;;;;;3.80;2.30;;;23.10;58.80;;;;;;5035128;28;20028;-69
2021/07/04 10:20:39;;;;;;;4.68;2.70;;;23.10;58.70;;;;;;5034873;28;20025;-69
2021/07/04 10:23:25;;;;;;;4.22;2.45;;;23.10;58.80;;;;;;5034661;28;20124;-69
2021/07/04 10:25:52;;;;;;;4.40;2.38;;;23.10;58.90;;;;;;5034351;28;20029;-69
2021/07/04 10:28:24;;;;;;;3.58;2.10;;;23.10;58.90;;;;;;5034449;28;20469;-69
2021/07/04 10:30:50;;;;;;;4.78;2.50;;;23.00;58.90;;;;;;5034251;28;20076;-69
2021/07/04 10:33:24;;;;;;;4.43;2.67;;;23.10;58.90;;;;;;5033867;28;20045;-69
2021/07/04 10:36:03;;;;;;;4.70;2.60;;;23.10;59.00;;;;;;5034144;28;20094;-69
2021/07/04 10:38:48;;;;;;;4.03;2.47;;;23.10;59.00;;;;;;5034032;28;20022;-69
2021/07/04 10:41:51;;;;;;;4.22;2.47;;;23.10;58.90;;;;;;5034526;28;20033;-69
2021/07/04 10:44:17;;;;;;;3.83;2.38;;;23.10;58.90;;;;;;5033824;28;20469;-69
2021/07/04 10:46:51;;;;;;;3.83;2.45;;;23.10;58.90;;;;;;5033961;28;20033;-69
2021/07/04 10:49:22;;;;;;;4.22;2.60;;;23.10;58.90;;;;;;5033329;28;20505;-70
2021/07/04 10:52:02;;;;;;;4.93;2.60;;;23.10;58.90;;;;;;5033693;28;20056;-69
2021/07/04 10:54:49;;;;;;;3.78;2.30;;;23.10;59.00;;;;;;5033674;28;20029;-69
2021/07/04 10:57:21;;;;;;;5.10;2.90;;;23.10;59.00;;;;;;5033717;28;20027;-70
2021/07/04 11:00:00;;;;;;;4.15;2.10;;;23.10;58.90;;;;;;5033658;28;20021;-69
2021/07/04 11:02:38;;;;;;;4.05;2.28;;;23.10;58.90;;;;;;5033659;28;20033;-69
2021/07/04 11:05:08;;;;;;;4.15;2.70;;;23.10;58.90;;;;;;5033527;28;20022;-69
2021/07/04 11:08:03;;;;;;;4.05;2.60;;;23.20;58.80;;;;;;5033979;28;20056;-70
2021/07/04 11:10:30;;;;;;;4.28;2.17;;;23.20;58.60;;;;;;5028605;28;20555;-70
2021/07/04 11:13:16;;;;;;;4.13;2.63;;;23.30;58.60;;;;;;5033227;28;20025;-69
2021/07/04 11:15:50;;;;;;;4.22;2.45;;;23.30;58.60;;;;;;5029236;28;20048;-70
2021/07/04 11:18:20;;;;;;;3.80;2.30;;;23.30;58.60;;;;;;5033210;28;20100;-70
2021/07/04 11:20:47;;;;;;;3.60;2.17;;;23.30;58.50;;;;;;5033306;28;20068;-70
2021/07/04 11:23:27;;;;;;;4.32;2.50;;;23.40;58.60;;;;;;5033373;28;20465;-70
2021/07/04 11:26:06;;;;;;;4.20;2.50;;;23.40;58.50;;;;;;5033006;28;20087;-70
2021/07/04 11:28:47;;;;;;;4.82;2.58;;;23.40;58.40;;;;;;5033445;28;20048;-70
2021/07/04 11:31:19;;;;;;;4.30;2.40;;;23.40;58.30;;;;;;5033216;28;20084;-70
2021/07/04 11:33:50;;;;;;;4.25;2.60;;;23.40;58.50;;;;;;5032923;28;20398;-70
2021/07/04 11:36:15;;;;;;;4.28;2.40;;;23.40;58.60;;;;;;5033214;28;20532;-70
2021/07/04 11:38:52;;;;;;;3.70;2.20;;;23.40;58.60;;;;;;5032109;28;20112;-70
2021/07/04 11:41:24;;;;;;;4.60;2.50;;;23.30;58.70;;;;;;5033003;28;20465;-70
2021/07/04 11:43:56;;;;;;;5.07;2.80;;;23.30;58.70;;;;;;5031703;28;20041;-70
2021/07/04 11:46:24;;;;;;;4.38;2.65;;;23.30;58.80;;;;;;5033340;28;20391;-70
2021/07/04 11:48:58;;;;;;;4.40;2.80;;;23.30;58.70;;;;;;5033046;28;20021;-70
2021/07/04 11:51:25;;;;;;;3.90;2.38;;;23.30;58.80;;;;;;5033038;28;20018;-70
2021/07/04 11:53:53;;;;;;;5.20;2.90;;;23.30;58.80;;;;;;5033025;28;20044;-70
2021/07/04 11:56:19;;;;;;;3.47;2.20;;;23.30;58.80;;;;;;5032940;28;20083;-70
2021/07/04 11:58:45;;;;;;;4.22;2.65;;;23.30;58.80;;;;;;5032720;28;20026;-70
2021/07/04 12:01:22;;;;;;;3.85;2.40;;;23.30;58.80;;;;;;5033375;28;20037;-70
2021/07/04 12:03:55;;;;;;;4.30;2.67;;;23.30;58.80;;;;;;5037089;28;20018;-70
2021/07/04 12:06:24;;;;;;;4.60;2.60;;;23.20;58.90;;;;;;5037175;28;20120;-68
2021/07/04 12:09:07;;;;;;;4.45;2.50;;;23.20;58.90;;;;;;5036925;28;20108;-69
2021/07/04 12:11:46;;;;;;;4.45;2.65;;;23.30;59.00;;;;;;5036678;28;20021;-69
2021/07/04 12:14:27;;;;;;;4.72;2.63;;;23.30;59.00;;;;;;5036806;28;20029;-69
2021/07/04 12:16:54;;;;;;;4.82;2.90;;;23.20;59.00;;;;;;5036746;28;20584;-69
2021/07/04 12:19:33;;;;;;;4.50;2.90;;;23.20;59.00;;;;;;5036574;28;20424;-69
2021/07/04 12:22:01;;;;;;;4.43;2.65;;;23.20;59.00;;;;;;5036928;28;20112;-69
2021/07/04 12:24:35;;;;;;;4.28;2.55;;;23.20;59.10;;;;;;5036815;28;20026;-69
2021/07/04 12:27:01;;;;;;;4.85;2.53;;;23.20;59.10;;;;;;5036491;28;20113;-70
2021/07/04 12:29:26;;;;;;;4.80;2.70;;;23.20;59.10;;;;;;5036497;28;20446;-69
2021/07/04 12:32:05;;;;;;;4.65;2.97;;;23.20;59.20;;;;;;5036368;28;20038;-69
2021/07/04 12:34:32;;;;;;;4.45;2.80;;;23.20;59.30;;;;;;5036146;28;20045;-69
2021/07/04 12:36:59;;;;;;;4.70;2.80;;;23.20;59.30;;;;;;5036153;28;20469;-69
2021/07/04 12:39:32;;;;;;;4.70;2.80;;;23.10;59.40;;;;;;5037010;28;20079;-70
2021/07/04 12:41:58;;;;;;;4.88;2.83;;;23.10;59.60;;;;;;5036373;28;20388;-70
2021/07/04 12:44:24;;;;;;;4.32;2.80;;;23.10;59.50;;;;;;5036345;28;20091;-70
2021/07/04 12:46:50;;;;;;;5.32;3.10;;;23.10;59.50;;;;;;5036747;28;20032;-69
2021/07/04 12:49:15;;;;;;;5.20;3.08;;;23.10;59.60;;;;;;5036673;28;20101;-69
2021/07/04 12:51:46;;;;;;;5.28;2.92;;;23.10;59.50;;;;;;5037711;28;20490;-69
2021/07/04 12:54:21;;;;;;;5.47;3.03;;;23.10;59.60;;;;;;5036157;28;20068;-68